Dzerzhinsk, Russia
Current Conditions -  °F | °C
As of 4:30 PM on Thursday 23 Oct 2014 (Local Time) from UWGG Reporting Station
Light Snow Light Snow  
Wind Chill:   Ceiling: 900
Heat Index: 18°   Visibility: 1.4mi
Dew Point: 14°   Wind: 7mph
Humidity: 86%   Direction: 290°WNW
Pressure: 30.09"   Gusts: NA
Location:  56.24°N, 43.46°E
Report Text: UWGG 231330Z 29003MPS 2300 -SN OVC009 M08/M10 Q1019 TEMPO 1000SN 36450239 RMK QFE757
Loading
Personal Weather Stations






























Interactive Weather Map
Tropical Storm Tracking
New forecast layout! Learn more

10-Day Weather Forecast

Advertisements
Track Severe Weather on mobile